Time;durP1;ratioP1;P1;durP2;ratioP2;P2;SDS_P1;SDS_P2;PMS_P1;PMS_P2;Temp;Humidity;BMP_temperature;BMP_pressure;BME280_temperature;BME280_humidity;BME280_pressure;Samples;Min_cycle;Max_cycle;Signal;HPM_P1;HPM_P2
2023/04/12 00:00:10;;;;;;;0.10;0.10;;;;;;;8.30;44.88;99889.44;5009049;28;20041;-67
2023/04/12 00:02:37;;;;;;;0.10;0.10;;;;;;;8.35;44.72;99891.34;4997287;28;20095;-66
2023/04/12 00:05:03;;;;;;;0.10;0.10;;;;;;;8.36;44.77;99885.66;5005321;28;20049;-66
2023/04/12 00:07:29;;;;;;;0.10;0.10;;;;;;;8.32;44.77;99881.00;4972363;28;20045;-66
2023/04/12 00:09:55;;;;;;;0.10;0.10;;;;;;;8.32;44.52;99883.72;5000872;28;20062;-66
2023/04/12 00:12:21;;;;;;;0.20;0.20;;;;;;;8.33;44.49;99893.53;5005513;28;20049;-66
2023/04/12 00:14:49;;;;;;;0.10;0.10;;;;;;;8.35;44.70;99885.91;5011562;28;20136;-66
2023/04/12 00:17:15;;;;;;;0.15;0.15;;;;;;;8.34;44.60;99887.00;4978682;28;20045;-66
2023/04/12 00:19:41;;;;;;;0.10;0.10;;;;;;;8.30;44.70;99891.31;4989935;28;20062;-66
2023/04/12 00:22:08;;;;;;;0.10;0.10;;;;;;;8.25;44.50;99886.63;5006171;28;20049;-66
2023/04/12 00:24:34;;;;;;;0.10;0.10;;;;;;;8.26;44.63;99895.66;5012025;28;20091;-66
2023/04/12 00:27:01;;;;;;;0.20;0.20;;;;;;;8.22;44.76;99896.16;4989508;28;20084;-66
2023/04/12 00:29:27;;;;;;;0.10;0.10;;;;;;;8.16;45.03;99890.91;4997439;28;20042;-67
2023/04/12 00:31:54;;;;;;;0.22;0.20;;;;;;;8.02;45.81;99882.31;4976055;28;20092;-66
2023/04/12 00:34:22;;;;;;;0.13;0.10;;;;;;;7.86;46.51;99881.34;5017496;28;20046;-66
2023/04/12 00:36:49;;;;;;;0.10;0.10;;;;;;;7.88;46.17;99887.34;5004427;28;20046;-66
2023/04/12 00:39:15;;;;;;;0.20;0.20;;;;;;;7.92;46.08;99893.91;4999906;28;20144;-66
2023/04/12 00:41:41;;;;;;;0.10;0.10;;;;;;;7.93;46.37;99895.56;5019523;28;20049;-66
2023/04/12 00:44:08;;;;;;;0.10;0.10;;;;;;;7.84;46.33;99886.22;5026526;28;20069;-66
2023/04/12 00:46:35;;;;;;;0.20;0.20;;;;;;;7.85;46.22;99894.09;5026638;28;20053;-66
2023/04/12 00:49:03;;;;;;;0.10;0.10;;;;;;;7.83;46.21;99884.56;4998833;28;20736;-66
2023/04/12 00:51:32;;;;;;;0.10;0.10;;;;;;;7.77;46.51;99884.50;5006576;28;20472;-66
2023/04/12 00:54:00;;;;;;;0.10;0.10;;;;;;;7.75;46.51;99892.09;4975835;28;20046;-66
2023/04/12 00:56:27;;;;;;;0.10;0.10;;;;;;;7.76;46.45;99885.56;5010952;28;20045;-66
2023/04/12 00:58:54;;;;;;;0.20;0.20;;;;;;;7.75;46.64;99888.56;5019494;28;20046;-66
2023/04/12 01:01:20;;;;;;;0.10;0.10;;;;;;;7.69;46.87;99887.69;4992472;28;20053;-66
2023/04/12 01:03:49;;;;;;;0.10;0.10;;;;;;;7.69;46.99;99887.69;4993958;28;20042;-66
2023/04/12 01:06:36;;;;;;;0.10;0.10;;;;;;;7.66;46.89;99886.28;5006823;28;20049;-66
2023/04/12 01:09:14;;;;;;;0.25;0.20;;;;;;;7.64;47.00;99885.72;5023047;28;20053;-66
2023/04/12 01:11:50;;;;;;;0.20;0.20;;;;;;;7.69;46.86;99887.69;5021184;28;20413;-66
2023/04/12 01:14:24;;;;;;;0.38;0.20;;;;;;;7.77;46.53;99883.69;5002942;28;20053;-66
2023/04/12 01:16:56;;;;;;;0.20;0.20;;;;;;;7.77;46.50;99876.31;4985959;28;20111;-67
2023/04/12 01:19:52;;;;;;;0.10;0.10;;;;;;;7.80;46.39;99878.56;4970987;28;20149;-66
2023/04/12 01:22:37;;;;;;;0.15;0.15;;;;;;;7.77;46.54;99870.88;5018590;28;20051;-66
2023/04/12 01:25:22;;;;;;;0.10;0.10;;;;;;;7.76;46.31;99868.44;5018752;28;20111;-66
2023/04/12 01:27:55;;;;;;;0.17;0.17;;;;;;;7.74;46.36;99868.69;4999677;28;20042;-66
2023/04/12 01:30:25;;;;;;;0.10;0.10;;;;;;;7.72;46.53;99873.56;4993448;28;20060;-66
2023/04/12 01:32:54;;;;;;;0.25;0.10;;;;;;;7.67;46.53;99865.34;5016129;28;20037;-66
2023/04/12 01:35:25;;;;;;;0.13;0.13;;;;;;;7.66;46.63;99863.69;4991441;28;20108;-66
2023/04/12 01:37:51;;;;;;;0.20;0.20;;;;;;;7.63;46.88;99865.00;5006671;28;20060;-66
2023/04/12 01:40:18;;;;;;;0.30;0.10;;;;;;;7.57;46.53;99857.88;5022084;28;20614;-66
2023/04/12 01:42:45;;;;;;;0.20;0.10;;;;;;;7.63;46.52;99862.28;4980237;28;20038;-66
2023/04/12 01:45:12;;;;;;;0.40;0.17;;;;;;;7.64;46.55;99858.50;5004150;28;20045;-66
2023/04/12 01:47:38;;;;;;;;;;;;;;;7.63;46.42;99867.72;5015482;28;20144;-66
2023/04/12 01:50:14;;;;;;;0.20;0.20;;;;;;;7.60;46.38;99857.38;5024013;28;19940;-66
2023/04/12 01:52:45;;;;;;;0.10;0.10;;;;;;;7.64;46.37;99860.38;5009007;28;20547;-66
2023/04/12 01:55:13;;;;;;;0.10;0.10;;;;;;;7.63;46.30;99856.00;5020528;28;20705;-66
2023/04/12 01:57:42;;;;;;;0.20;0.20;;;;;;;7.60;46.48;99848.38;5026970;28;20111;-66
2023/04/12 02:00:10;;;;;;;0.10;0.10;;;;;;;7.59;46.48;99853.00;4986141;28;20054;-66
2023/04/12 02:02:42;;;;;;;0.40;0.10;;;;;;;7.57;46.36;99851.59;5013765;28;20148;-66
2023/04/12 02:05:09;;;;;;;0.20;0.20;;;;;;;7.54;46.71;99852.13;4986713;28;20054;-66
2023/04/12 02:07:36;;;;;;;0.15;0.15;;;;;;;7.52;46.74;99845.03;4986430;28;20049;-66
2023/04/12 02:10:03;;;;;;;0.10;0.10;;;;;;;7.48;46.79;99845.78;4991730;28;20045;-66
2023/04/12 02:12:29;;;;;;;0.52;0.30;;;;;;;7.44;46.92;99844.66;5013462;28;20066;-66
2023/04/12 02:14:56;;;;;;;0.20;0.20;;;;;;;7.40;47.09;99847.03;5007202;28;20049;-66
2023/04/12 02:17:22;;;;;;;0.52;0.20;;;;;;;7.29;47.78;99848.81;5024899;28;20041;-66
2023/04/12 02:19:50;;;;;;;0.10;0.10;;;;;;;7.19;48.28;99846.78;5005674;28;20123;-66
2023/04/12 02:22:18;;;;;;;0.32;0.30;;;;;;;7.12;48.64;99846.13;5000770;28;20141;-66
2023/04/12 02:24:44;;;;;;;0.10;0.10;;;;;;;7.06;48.73;99847.13;5003750;28;20073;-67
2023/04/12 02:27:10;;;;;;;0.20;0.20;;;;;;;6.95;49.09;99846.19;5011995;28;20057;-66
2023/04/12 02:29:37;;;;;;;0.20;0.20;;;;;;;6.88;49.53;99846.34;4996502;28;20050;-66
2023/04/12 02:32:03;;;;;;;0.10;0.10;;;;;;;6.80;49.89;99844.88;5001359;28;20052;-66
2023/04/12 02:34:33;;;;;;;0.32;0.20;;;;;;;6.73;50.15;99848.84;4985621;28;20525;-66
2023/04/12 02:37:12;;;;;;;0.28;0.28;;;;;;;6.69;50.43;99853.94;4997828;28;20047;-66
2023/04/12 02:39:40;;;;;;;0.43;0.20;;;;;;;6.66;50.32;99843.56;4985207;28;20144;-66
2023/04/12 02:42:06;;;;;;;0.20;0.20;;;;;;;6.64;50.66;99854.66;4991449;28;20056;-66
2023/04/12 02:44:32;;;;;;;0.20;0.20;;;;;;;6.61;50.87;99847.00;4968216;28;20054;-66
2023/04/12 02:47:19;;;;;;;0.20;0.20;;;;;;;6.60;51.27;99849.97;4994925;28;20061;-66
2023/04/12 02:50:01;;;;;;;0.10;0.10;;;;;;;6.57;51.26;99850.47;4969928;28;20394;-66
2023/04/12 02:52:31;;;;;;;;;;;;;;;6.61;51.38;99854.31;4987688;28;20081;-66
2023/04/12 02:55:16;;;;;;;0.40;0.22;;;;;;;6.68;51.27;99857.72;5000809;28;19925;-66
2023/04/12 02:57:43;;;;;;;0.20;0.20;;;;;;;6.65;51.42;99845.44;4984958;28;20052;-66
2023/04/12 03:00:16;;;;;;;0.35;0.20;;;;;;;6.72;51.39;99858.06;5001405;28;20100;-66
2023/04/12 03:02:48;;;;;;;0.32;0.30;;;;;;;6.69;51.50;99855.81;4995084;28;20045;-66
2023/04/12 03:05:20;;;;;;;0.15;0.15;;;;;;;6.70;51.98;99860.16;4992745;28;20107;-66
2023/04/12 03:07:48;;;;;;;0.20;0.17;;;;;;;6.70;52.33;99862.88;5003698;28;20260;-66
2023/04/12 03:10:18;;;;;;;0.20;0.20;;;;;;;6.70;52.67;99860.16;4984684;28;20040;-66
2023/04/12 03:12:50;;;;;;;0.10;0.10;;;;;;;6.70;52.81;99863.72;4999742;28;20057;-66
2023/04/12 03:15:18;;;;;;;1.35;0.30;;;;;;;6.74;53.05;99866.78;4994389;28;20132;-66
2023/04/12 03:17:47;;;;;;;0.25;0.20;;;;;;;6.75;53.13;99865.72;5023030;28;20509;-66
2023/04/12 03:20:16;;;;;;;0.20;0.20;;;;;;;6.64;53.09;99843.00;4998362;28;20050;-66
2023/04/12 03:22:50;;;;;;;0.93;0.38;;;;;;;6.81;53.27;99868.25;5001096;28;20080;-66
2023/04/12 03:25:19;;;;;;;0.22;0.22;;;;;;;6.81;53.72;99862.81;4954749;28;20546;-66
2023/04/12 03:27:52;;;;;;;0.38;0.38;;;;;;;6.87;54.02;99865.59;4986260;28;20096;-66
2023/04/12 03:30:21;;;;;;;0.55;0.30;;;;;;;6.94;54.03;99863.53;4994100;28;20132;-66
2023/04/12 03:32:49;;;;;;;0.20;0.20;;;;;;;6.92;54.21;99860.25;4984935;28;20576;-66
2023/04/12 03:35:16;;;;;;;0.30;0.30;;;;;;;6.99;54.39;99869.06;4993207;28;20047;-66
2023/04/12 03:37:42;;;;;;;0.35;0.25;;;;;;;7.00;54.59;99868.00;5004744;28;20049;-66
2023/04/12 03:40:12;;;;;;;0.20;0.20;;;;;;;7.05;54.28;99873.50;4993639;28;20146;-66
2023/04/12 03:42:42;;;;;;;0.22;0.22;;;;;;;7.08;54.45;99880.34;4992883;28;20073;-66
2023/04/12 03:45:14;;;;;;;0.20;0.20;;;;;;;7.13;54.54;99869.53;4966605;28;20255;-66
2023/04/12 03:47:44;;;;;;;0.20;0.20;;;;;;;7.19;54.83;99875.84;4975077;28;20049;-66
2023/04/12 03:50:11;;;;;;;0.30;0.28;;;;;;;7.22;54.76;99881.63;5003995;28;20540;-66
2023/04/12 03:52:38;;;;;;;0.20;0.20;;;;;;;7.26;54.98;99881.13;4998513;28;20561;-66
2023/04/12 03:55:06;;;;;;;0.30;0.30;;;;;;;7.31;55.02;99878.47;4990465;28;20041;-67
2023/04/12 03:57:34;;;;;;;0.30;0.30;;;;;;;7.33;55.42;99876.31;4994160;28;20049;-66
2023/04/12 04:00:02;;;;;;;0.30;0.30;;;;;;;7.43;55.49;99887.34;5001358;28;20045;-66
2023/04/12 04:02:46;;;;;;;0.30;0.30;;;;;;;7.51;55.38;99883.34;5013770;28;20045;-66
2023/04/12 04:05:14;;;;;;;0.63;0.30;;;;;;;7.56;55.19;99888.84;5000611;28;20152;-66
2023/04/12 04:07:43;;;;;;;0.47;0.20;;;;;;;7.47;54.84;99869.44;4990187;28;20161;-66
2023/04/12 04:10:10;;;;;;;0.20;0.20;;;;;;;7.65;54.66;99887.34;4988965;28;20424;-67
2023/04/12 04:12:40;;;;;;;0.75;0.30;;;;;;;7.71;54.13;99885.53;4994652;28;20136;-66
2023/04/12 04:15:10;;;;;;;0.20;0.20;;;;;;;7.77;53.29;99889.13;4991199;28;20145;-66
2023/04/12 04:17:36;;;;;;;0.45;0.30;;;;;;;7.82;53.20;99888.38;4992359;28;20461;-66
2023/04/12 04:20:05;;;;;;;0.67;0.30;;;;;;;7.87;53.40;99891.94;4977234;28;20104;-66
2023/04/12 04:22:34;;;;;;;0.20;0.20;;;;;;;7.96;52.75;99892.34;4987393;28;20679;-66
2023/04/12 04:25:01;;;;;;;;;;;;;;;8.06;52.69;99884.28;5002457;28;20157;-66
2023/04/12 04:27:33;;;;;;;0.35;0.35;;;;;;;8.15;51.83;99884.63;4996544;28;19940;-66
2023/04/12 04:30:03;;;;;;;0.55;0.30;;;;;;;8.19;52.00;99890.41;4996729;28;20053;-66
2023/04/12 04:32:31;;;;;;;0.30;0.30;;;;;;;8.30;52.12;99885.88;5002174;28;20436;-66
2023/04/12 04:34:58;;;;;;;0.20;0.20;;;;;;;8.40;51.80;99882.41;4983090;28;20520;-66
2023/04/12 04:37:30;;;;;;;1.02;0.32;;;;;;;8.50;52.03;99882.56;5003429;28;20515;-66
2023/04/12 04:39:57;;;;;;;0.32;0.30;;;;;;;8.58;51.68;99892.97;4989598;28;20054;-66
2023/04/12 04:42:24;;;;;;;0.32;0.32;;;;;;;8.64;51.04;99900.13;4976748;28;20049;-66
2023/04/12 04:45:11;;;;;;;0.63;0.45;;;;;;;8.72;51.26;99898.00;5015660;28;20563;-66
2023/04/12 04:47:37;;;;;;;0.30;0.30;;;;;;;8.78;50.79;99891.53;5004154;28;20520;-66
2023/04/12 04:50:05;;;;;;;0.22;0.20;;;;;;;8.88;50.77;99882.59;5004464;28;20057;-66
2023/04/12 04:52:31;;;;;;;;;;;;;;;9.00;50.69;99894.13;5004307;28;20415;-66
2023/04/12 04:55:02;;;;;;;0.43;0.30;;;;;;;9.13;50.44;99894.75;5020232;28;20070;-66
2023/04/12 04:57:33;;;;;;;0.40;0.32;;;;;;;9.21;50.15;99886.91;4976091;28;20083;-66
2023/04/12 05:00:00;;;;;;;0.40;0.40;;;;;;;9.29;50.15;99893.78;5021990;28;20046;-66
2023/04/12 05:02:28;;;;;;;0.63;0.40;;;;;;;9.39;50.02;99893.00;5007037;28;20048;-66
2023/04/12 05:04:55;;;;;;;0.45;0.38;;;;;;;9.48;49.69;99893.31;5006748;28;20053;-66
2023/04/12 05:07:24;;;;;;;0.70;0.50;;;;;;;9.59;49.26;99886.00;4990709;28;20111;-66
2023/04/12 05:09:50;;;;;;;0.63;0.47;;;;;;;9.71;48.75;99893.97;5004918;28;20059;-66
2023/04/12 05:12:18;;;;;;;0.47;0.47;;;;;;;9.78;48.78;99894.56;4983940;28;20050;-66
2023/04/12 05:14:50;;;;;;;0.85;0.40;;;;;;;9.90;48.44;99902.50;4998738;28;20132;-66
2023/04/12 05:17:17;;;;;;;0.30;0.30;;;;;;;9.98;47.83;99896.50;4993796;28;20080;-66
2023/04/12 05:19:45;;;;;;;0.40;0.40;;;;;;;10.06;47.54;99900.63;5000696;28;20058;-67
2023/04/12 05:22:12;;;;;;;0.40;0.30;;;;;;;10.16;46.69;99888.94;4987081;28;20053;-66
2023/04/12 05:24:39;;;;;;;0.75;0.30;;;;;;;10.26;46.02;99893.59;5018932;28;20083;-66
2023/04/12 05:27:05;;;;;;;0.20;0.20;;;;;;;10.35;44.98;99887.31;5018316;28;20067;-66
2023/04/12 05:29:31;;;;;;;0.35;0.35;;;;;;;10.42;44.32;99891.72;4971009;28;20100;-66
2023/04/12 05:31:58;;;;;;;0.30;0.30;;;;;;;10.47;43.85;99892.56;4997094;28;20053;-66
2023/04/12 05:34:25;;;;;;;;;;;;;;;10.54;43.92;99902.41;4996255;28;20049;-66
2023/04/12 05:36:55;;;;;;;0.20;0.20;;;;;;;10.57;43.60;99893.66;5007026;28;19978;-66
2023/04/12 05:39:22;;;;;;;0.52;0.30;;;;;;;10.64;43.27;99892.31;4988402;28;20469;-66
2023/04/12 05:41:50;;;;;;;0.30;0.30;;;;;;;10.72;42.29;99885.47;4978116;28;20107;-66
2023/04/12 05:44:17;;;;;;;0.30;0.30;;;;;;;10.89;41.88;99893.38;4984959;28;20137;-66
2023/04/12 05:46:43;;;;;;;0.40;0.40;;;;;;;11.02;41.13;99902.13;4991792;28;20050;-67
2023/04/12 05:49:09;;;;;;;0.40;0.40;;;;;;;11.13;41.42;99897.47;4990095;28;20502;-66
2023/04/12 05:51:36;;;;;;;0.40;0.40;;;;;;;11.32;40.81;99901.28;4655862;28;10000102;-67
2023/04/12 05:54:06;;;;;;;0.63;0.30;;;;;;;11.57;40.54;99901.47;4994631;28;20045;-66
2023/04/12 05:56:33;;;;;;;0.40;0.40;;;;;;;11.82;39.88;99899.72;4978637;28;20050;-67
2023/04/12 05:59:01;;;;;;;0.30;0.30;;;;;;;11.97;39.37;99899.66;5016190;28;20083;-67
2023/04/12 06:01:33;;;;;;;0.40;0.40;;;;;;;12.15;39.21;99892.75;4981133;28;20050;-66
2023/04/12 06:04:04;;;;;;;0.30;0.30;;;;;;;12.38;38.79;99897.81;5001162;28;20516;-66
2023/04/12 06:06:30;;;;;;;0.30;0.30;;;;;;;12.52;38.29;99890.59;4988175;28;20050;-66
2023/04/12 06:08:59;;;;;;;0.30;0.30;;;;;;;12.71;37.05;99892.63;4979862;28;20563;-66
2023/04/12 06:11:28;;;;;;;0.30;0.30;;;;;;;12.81;37.03;99897.22;4972001;28;20049;-67
2023/04/12 06:13:54;;;;;;;;;;;;;;;12.98;36.82;99899.53;5015105;28;20073;-67
2023/04/12 06:16:21;;;;;;;0.47;0.40;;;;;;;13.11;36.84;99884.31;4985966;28;19925;-66
2023/04/12 06:18:47;;;;;;;0.45;0.40;;;;;;;13.24;36.61;99880.06;5009210;28;20042;-67
2023/04/12 06:21:14;;;;;;;0.40;0.40;;;;;;;13.44;35.90;99895.53;4992103;28;20539;-67
2023/04/12 06:23:41;;;;;;;0.47;0.40;;;;;;;13.48;35.62;99877.34;4997374;28;20116;-66
2023/04/12 06:26:08;;;;;;;0.50;0.32;;;;;;;13.72;35.70;99882.03;4999153;28;20054;-66
2023/04/12 06:28:35;;;;;;;0.43;0.35;;;;;;;13.92;34.95;99885.63;5012664;28;20081;-66
2023/04/12 06:31:02;;;;;;;0.40;0.40;;;;;;;14.04;34.46;99886.81;5008840;28;20488;-66
2023/04/12 06:33:35;;;;;;;0.45;0.40;;;;;;;14.15;34.15;99893.00;4998573;28;20140;-66
2023/04/12 06:36:06;;;;;;;0.30;0.30;;;;;;;14.20;33.17;99892.09;5015108;28;20042;-66
2023/04/12 06:38:32;;;;;;;0.30;0.30;;;;;;;14.12;32.82;99885.31;5022960;28;20169;-66
2023/04/12 06:40:59;;;;;;;0.45;0.40;;;;;;;14.06;33.12;99889.28;5014673;28;20518;-66
2023/04/12 06:43:25;;;;;;;0.30;0.30;;;;;;;14.12;33.24;99879.84;5018100;28;20050;-66
2023/04/12 06:45:55;;;;;;;0.30;0.30;;;;;;;14.31;32.43;99882.59;4978053;28;20053;-67
2023/04/12 06:48:21;;;;;;;0.32;0.32;;;;;;;14.38;32.36;99884.16;4667666;28;9999746;-66
2023/04/12 06:50:48;;;;;;;0.30;0.30;;;;;;;14.40;32.36;99887.44;5001980;28;20046;-66
2023/04/12 06:53:14;;;;;;;0.40;0.40;;;;;;;14.54;31.80;99882.81;5009205;28;20042;-66
2023/04/12 06:55:40;;;;;;;0.40;0.40;;;;;;;14.74;31.56;99887.16;5012089;28;20053;-66
2023/04/12 06:58:06;;;;;;;0.30;0.30;;;;;;;14.92;31.89;99887.44;4997990;28;20053;-66
2023/04/12 07:00:32;;;;;;;0.50;0.50;;;;;;;15.08;31.15;99887.97;5001932;28;20050;-66
2023/04/12 07:03:00;;;;;;;0.52;0.35;;;;;;;15.25;30.83;99883.81;5000934;28;20068;-66
2023/04/12 07:05:26;;;;;;;0.38;0.38;;;;;;;15.36;30.69;99888.03;4988561;28;20045;-66
2023/04/12 07:07:52;;;;;;;0.40;0.40;;;;;;;15.42;30.29;99883.22;5002724;28;20620;-66
2023/04/12 07:10:18;;;;;;;0.40;0.40;;;;;;;15.36;30.42;99876.19;4998517;28;20053;-66
2023/04/12 07:12:44;;;;;;;0.30;0.30;;;;;;;15.53;29.67;99878.34;4991054;28;20153;-66
2023/04/12 07:15:11;;;;;;;0.30;0.30;;;;;;;15.52;29.79;99876.69;5012216;28;20175;-66
2023/04/12 07:17:37;;;;;;;0.30;0.30;;;;;;;15.64;29.91;99884.44;4980060;28;20140;-66
2023/04/12 07:20:05;;;;;;;0.47;0.30;;;;;;;15.77;29.06;99889.13;4995265;28;20691;-66
2023/04/12 07:22:32;;;;;;;0.25;0.25;;;;;;;15.75;28.47;99874.84;5002062;28;20296;-66
2023/04/12 07:24:58;;;;;;;0.30;0.30;;;;;;;15.89;28.07;99883.13;4990940;28;20127;-65
2023/04/12 07:27:24;;;;;;;0.30;0.30;;;;;;;15.85;28.28;99882.91;5016406;28;20501;-65
2023/04/12 07:29:52;;;;;;;0.30;0.30;;;;;;;16.05;28.27;99883.63;5024073;28;20038;-66
2023/04/12 07:32:18;;;;;;;0.30;0.30;;;;;;;16.35;27.89;99878.53;5021267;28;20099;-66
2023/04/12 07:34:44;;;;;;;0.30;0.30;;;;;;;16.59;27.47;99880.16;5022090;28;20056;-66
2023/04/12 07:37:12;;;;;;;0.30;0.30;;;;;;;16.69;26.96;99879.09;4995433;28;20053;-66
2023/04/12 07:39:39;;;;;;;0.30;0.30;;;;;;;16.85;26.74;99880.34;5012420;28;20041;-66
2023/04/12 07:42:05;;;;;;;;;;;;;;;17.07;26.43;99877.88;5026414;28;20412;-66
2023/04/12 07:44:32;;;;;;;0.30;0.30;;;;;;;17.05;26.03;99874.63;5024861;28;19925;-66
2023/04/12 07:46:58;;;;;;;0.30;0.30;;;;;;;17.16;26.40;99873.25;4993372;28;20050;-66
2023/04/12 07:49:26;;;;;;;0.30;0.30;;;;;;;17.41;26.05;99871.72;5001281;28;20539;-65
2023/04/12 07:51:52;;;;;;;0.20;0.20;;;;;;;17.76;25.61;99876.56;5017834;28;20140;-66
2023/04/12 07:54:19;;;;;;;0.40;0.40;;;;;;;18.08;25.15;99870.94;4988757;28;20148;-66
2023/04/12 07:56:57;;;;;;;0.30;0.30;;;;;;;18.37;25.18;99861.19;4993654;28;20073;-66
2023/04/12 07:59:23;;;;;;;0.40;0.40;;;;;;;18.61;25.20;99868.97;5014609;28;20095;-66
2023/04/12 08:01:49;;;;;;;0.30;0.30;;;;;;;18.76;24.14;99873.19;5013370;28;20045;-66
2023/04/12 08:04:15;;;;;;;0.50;0.50;;;;;;;19.07;23.45;99874.13;5015715;28;20056;-66
2023/04/12 08:06:41;;;;;;;0.47;0.47;;;;;;;19.22;23.45;99867.25;4997106;28;20057;-66
2023/04/12 08:09:07;;;;;;;0.40;0.40;;;;;;;19.46;23.17;99857.50;5017034;28;20041;-67
2023/04/12 08:11:35;;;;;;;0.45;0.45;;;;;;;19.67;23.37;99857.56;5017613;28;20091;-66
2023/04/12 08:14:00;;;;;;;;;;;;;;;20.11;23.14;99854.53;5016235;28;20146;-66
2023/04/12 08:16:27;;;;;;;0.40;0.40;;;;;;;20.42;22.28;99847.75;5010828;28;20519;-66
2023/04/12 08:18:53;;;;;;;0.50;0.50;;;;;;;20.88;21.89;99847.81;4995303;28;20133;-66
2023/04/12 08:21:19;;;;;;;0.65;0.45;;;;;;;20.67;21.86;99853.41;5019790;28;20103;-66
2023/04/12 08:23:45;;;;;;;0.50;0.50;;;;;;;20.59;21.99;99849.56;5015441;28;20491;-66
2023/04/12 08:26:11;;;;;;;0.77;0.60;;;;;;;20.83;22.02;99846.06;5017854;28;20520;-66
2023/04/12 08:28:39;;;;;;;0.50;0.50;;;;;;;20.87;21.71;99848.97;5003433;28;20060;-66
2023/04/12 08:31:06;;;;;;;0.40;0.40;;;;;;;20.99;21.50;99847.34;4982587;28;20037;-66
2023/04/12 08:33:32;;;;;;;0.40;0.40;;;;;;;20.45;21.83;99849.84;5017089;28;20157;-66
2023/04/12 08:35:58;;;;;;;0.82;0.50;;;;;;;20.57;21.47;99839.94;5019704;28;20133;-67
2023/04/12 08:38:25;;;;;;;0.40;0.40;;;;;;;20.91;21.33;99843.53;5016435;28;20048;-66
2023/04/12 08:40:52;;;;;;;0.50;0.50;;;;;;;21.04;21.11;99838.81;5025682;28;20041;-66
2023/04/12 08:43:25;;;;;;;;;;;;;;;20.79;21.11;99845.09;5009010;28;20140;-66
2023/04/12 08:45:53;;;;;;;0.30;0.30;;;;;;;20.25;21.71;99834.84;5021120;28;20031;-66
2023/04/12 08:48:22;;;;;;;0.40;0.40;;;;;;;19.33;22.62;99842.75;4997721;28;20077;-66
2023/04/12 08:50:49;;;;;;;0.30;0.30;;;;;;;18.82;23.15;99830.34;5023017;28;20455;-66
2023/04/12 08:53:15;;;;;;;0.30;0.30;;;;;;;18.41;23.24;99834.47;4981914;28;20524;-66
2023/04/12 08:55:44;;;;;;;0.30;0.30;;;;;;;17.99;23.75;99835.75;4998441;28;20059;-66
2023/04/12 08:58:12;;;;;;;0.40;0.40;;;;;;;17.59;24.34;99830.31;5013293;28;20722;-66
2023/04/12 09:00:39;;;;;;;0.40;0.40;;;;;;;17.72;24.29;99831.34;5021522;28;20060;-65
2023/04/12 09:03:09;;;;;;;0.40;0.40;;;;;;;17.92;23.96;99832.66;5023235;28;20488;-66
2023/04/12 09:05:35;;;;;;;0.60;0.60;;;;;;;18.79;22.90;99836.53;5022111;28;20553;-66
2023/04/12 09:08:02;;;;;;;0.60;0.60;;;;;;;20.26;21.08;99823.38;5022395;28;20127;-66
2023/04/12 09:10:32;;;;;;;0.50;0.50;;;;;;;20.81;20.06;99822.56;4995888;28;20148;-66
2023/04/12 09:12:58;;;;;;;0.60;0.60;;;;;;;21.16;20.03;99821.34;5001804;28;20604;-67
2023/04/12 09:15:24;;;;;;;0.60;0.60;;;;;;;21.93;18.96;99812.25;5007077;28;20096;-66
2023/04/12 09:18:02;;;;;;;0.60;0.60;;;;;;;22.71;18.15;99811.28;5010699;28;20064;-66
2023/04/12 09:20:31;;;;;;;0.70;0.70;;;;;;;22.92;18.09;99808.25;5028909;28;20053;-66
2023/04/12 09:22:58;;;;;;;0.65;0.65;;;;;;;23.23;17.82;99808.59;5027258;28;20048;-66
2023/04/12 09:25:37;;;;;;;;;;;;;;;23.33;17.55;99805.31;5007804;28;20491;-66
2023/04/12 09:28:16;;;;;;;1.17;0.70;;;;;;;23.28;17.85;99800.00;5010414;28;19926;-66
2023/04/12 09:30:43;;;;;;;0.70;0.70;;;;;;;23.27;17.50;99798.38;5019135;28;20514;-66
2023/04/12 09:33:12;;;;;;;0.80;0.80;;;;;;;23.16;17.26;99792.50;4996659;28;20045;-66
2023/04/12 09:35:41;;;;;;;0.80;0.80;;;;;;;23.56;17.53;99798.25;5023456;28;20049;-66
2023/04/12 09:38:08;;;;;;;0.80;0.80;;;;;;;24.16;17.23;99788.78;5021537;28;20107;-66
2023/04/12 09:40:35;;;;;;;0.70;0.70;;;;;;;24.61;16.77;99789.25;4999451;28;20049;-66
2023/04/12 09:43:02;;;;;;;;;;;;;;;24.78;16.04;99790.78;5000427;28;20092;-66
2023/04/12 09:45:30;;;;;;;0.90;0.90;;;;;;;24.78;16.21;99793.59;5022303;28;19929;-66
2023/04/12 09:47:56;;;;;;;0.90;0.90;;;;;;;24.90;16.04;99792.59;5015850;28;20050;-67
2023/04/12 09:50:24;;;;;;;;;;;;;;;25.29;15.70;99791.63;5018774;28;20451;-67
2023/04/12 09:52:53;;;;;;;0.80;0.80;;;;;;;25.63;15.49;99789.78;5023079;28;19936;-66
2023/04/12 09:55:21;;;;;;;0.80;0.80;;;;;;;25.84;15.42;99779.25;5019334;28;20041;-66
2023/04/12 09:57:50;;;;;;;0.90;0.90;;;;;;;25.81;15.67;99768.78;4995086;28;20065;-66
2023/04/12 10:00:17;;;;;;;0.90;0.90;;;;;;;26.17;15.01;99767.28;5002210;28;20520;-66
2023/04/12 10:02:43;;;;;;;;;;;;;;;26.13;14.84;99777.59;4998337;28;20111;-67
2023/04/12 10:05:12;;;;;;;0.90;0.90;;;;;;;26.11;14.83;99770.75;5020290;28;19991;-67
2023/04/12 10:07:40;;;;;;;0.90;0.90;;;;;;;25.99;14.72;99774.63;5023951;28;20631;-67
2023/04/12 10:10:11;;;;;;;1.00;1.00;;;;;;;26.22;13.89;99774.53;4997510;28;20129;-67
2023/04/12 10:12:40;;;;;;;1.00;1.00;;;;;;;26.92;13.64;99771.25;4998891;28;20384;-67
2023/04/12 10:15:12;;;;;;;1.00;1.00;;;;;;;27.02;13.66;99770.56;5023903;28;20524;-68
2023/04/12 10:17:44;;;;;;;1.00;1.00;;;;;;;26.89;13.59;99772.03;5024689;28;20073;-67
2023/04/12 10:20:10;;;;;;;1.00;1.00;;;;;;;26.92;13.94;99762.84;4996313;28;20444;-67
2023/04/12 10:22:38;;;;;;;1.20;1.10;;;;;;;27.75;13.75;99754.19;5020647;28;20049;-68
2023/04/12 10:25:11;;;;;;;1.00;1.00;;;;;;;27.96;13.30;99755.50;5016588;28;20057;-67
2023/04/12 10:27:41;;;;;;;1.10;1.10;;;;;;;28.30;12.90;99758.03;5020608;28;20591;-67
2023/04/12 10:30:21;;;;;;;1.25;1.15;;;;;;;28.29;12.90;99754.41;4996828;28;20041;-67
2023/04/12 10:32:48;;;;;;;1.10;1.10;;;;;;;28.16;13.13;99753.97;5015615;28;20124;-67
2023/04/12 10:35:15;;;;;;;1.10;1.10;;;;;;;28.38;12.74;99764.47;4994598;28;20433;-67
2023/04/12 10:37:58;;;;;;;1.20;1.20;;;;;;;28.40;12.56;99762.06;5021282;28;20052;-67
2023/04/12 10:40:27;;;;;;;1.20;1.20;;;;;;;28.07;12.46;99755.53;5014955;28;20041;-67
2023/04/12 10:43:23;;;;;;;1.10;1.10;;;;;;;28.07;12.60;99742.28;5016654;28;20045;-67
2023/04/12 10:45:49;;;;;;;1.10;1.10;;;;;;;28.44;12.61;99744.03;5018367;28;20053;-67
2023/04/12 10:48:29;;;;;;;1.20;1.20;;;;;;;28.59;12.33;99749.66;4995899;28;20053;-67
2023/04/12 10:51:12;;;;;;;1.30;1.20;;;;;;;28.53;12.03;99754.06;4978977;28;20072;-67
2023/04/12 10:53:39;;;;;;;1.42;1.20;;;;;;;28.58;12.26;99740.41;5021580;28;20049;-67
2023/04/12 10:56:45;;;;;;;1.30;1.20;;;;;;;28.85;11.87;99742.06;4982222;28;20058;-67
2023/04/12 10:59:58;;;;;;;1.20;1.20;;;;;;;28.83;12.19;99728.41;4988501;28;20060;-67
2023/04/12 11:02:24;;;;;;;1.20;1.20;;;;;;;29.62;11.75;99729.50;4978517;28;20626;-67
2023/04/12 11:05:09;;;;;;;1.30;1.20;;;;;;;29.69;11.38;99728.69;5004133;28;20049;-67
2023/04/12 11:07:54;;;;;;;1.23;1.20;;;;;;;29.41;11.95;99721.91;5014681;28;20065;-67
2023/04/12 11:10:40;;;;;;;1.30;1.20;;;;;;;29.08;11.59;99712.72;5015431;28;20092;-68
2023/04/12 11:13:09;;;;;;;1.30;1.20;;;;;;;29.25;12.13;99706.25;4990281;28;20148;-67
2023/04/12 11:15:39;;;;;;;1.30;1.20;;;;;;;29.43;12.19;99686.53;5024802;28;20076;-67
2023/04/12 11:18:11;;;;;;;1.40;1.30;;;;;;;29.02;12.23;99693.41;5007322;28;20140;-66
2023/04/12 11:20:41;;;;;;;1.40;1.30;;;;;;;29.16;12.79;99688.97;5023593;28;20064;-67
2023/04/12 11:23:11;;;;;;;1.30;1.20;;;;;;;29.33;11.96;99680.88;5007493;28;20045;-67
2023/04/12 11:25:50;;;;;;;1.40;1.30;;;;;;;29.02;12.05;99687.00;5004659;28;20087;-67
2023/04/12 11:28:40;;;;;;;1.30;1.20;;;;;;;29.44;11.42;99684.50;5020807;28;20056;-67
2023/04/12 11:31:10;;;;;;;1.40;1.30;;;;;;;29.66;10.86;99675.97;5006886;28;20098;-67
2023/04/12 11:33:38;;;;;;;1.40;1.30;;;;;;;29.99;10.67;99671.78;4999347;28;20048;-67
2023/04/12 11:36:06;;;;;;;1.40;1.30;;;;;;;29.29;11.81;99680.91;5000341;28;20455;-67
2023/04/12 11:38:34;;;;;;;1.40;1.30;;;;;;;30.13;11.01;99670.94;5009378;28;20072;-67
2023/04/12 11:41:00;;;;;;;1.40;1.30;;;;;;;30.93;10.87;99661.84;5017987;28;20045;-67
2023/04/12 11:43:27;;;;;;;1.52;1.40;;;;;;;30.31;11.21;99667.19;4995720;28;20046;-67
2023/04/12 11:45:57;;;;;;;1.50;1.40;;;;;;;30.18;11.43;99658.41;5006922;28;20076;-67
2023/04/12 11:48:25;;;;;;;1.42;1.27;;;;;;;30.73;11.50;99666.47;5019268;28;20053;-67